Time;durP1;ratioP1;P1;durP2;ratioP2;P2;SDS_P1;SDS_P2;PMS_P1;PMS_P2;Temp;Humidity;BMP_temperature;BMP_pressure;BME280_temperature;BME280_humidity;BME280_pressure;Samples;Min_cycle;Max_cycle;Signal;HPM_P1;HPM_P2
2021/08/26 00:34:42;;;;;;;16.50;3.17;;;;;;;15.00;99.06;101896.53;6126861;23;20010;-82
2021/08/26 00:38:20;;;;;;;15.35;3.70;;;;;;;15.11;96.21;101896.69;6156761;23;20005;-85
2021/08/26 00:47:58;;;;;;;13.30;3.03;;;;;;;15.22;95.03;101887.16;6092532;23;20410;-85
2021/08/26 00:54:50;;;;;;;;;;;;;;;;;;;;;
2021/08/26 01:01:19;;;;;;;14.93;4.00;;;;;;;15.25;89.91;101876.59;6121071;23;20017;-85
2021/08/26 01:10:39;;;;;;;19.80;3.70;;;;;;;15.22;87.95;101865.03;6036663;23;20505;-81
2021/08/26 01:14:34;;;;;;;;;;;;;;;;;;;;;
2021/08/26 01:24:36;;;;;;;23.60;3.78;;;;;;;15.08;88.68;101854.25;5928477;24;20096;-87
2021/08/26 01:27:55;;;;;;;14.10;3.33;;;;;;;15.05;88.74;101863.03;6047767;23;20022;-81
2021/08/26 01:31:04;;;;;;;16.83;3.55;;;;;;;15.04;86.32;101850.66;5989274;23;20010;-83
2021/08/26 01:34:14;;;;;;;26.00;3.55;;;;;;;15.01;87.66;101845.31;6055508;23;20035;-84
2021/08/26 01:37:09;;;;;;;11.50;3.60;;;;;;;15.00;87.64;101848.84;6065974;23;20054;-81
2021/08/26 01:39:57;;;;;;;20.13;3.65;;;;;;;14.98;87.70;101851.47;6065881;23;20013;-82
2021/08/26 01:43:03;;;;;;;11.57;3.08;;;;;;;14.96;85.29;101842.63;6039913;23;20011;-88
2021/08/26 01:46:30;;;;;;;15.15;3.50;;;;;;;14.99;86.65;101841.78;6152019;23;20010;-82
2021/08/26 01:48:59;;;;;;;16.60;3.55;;;;;;;14.99;87.03;101841.78;6171212;23;20027;-83
2021/08/26 01:52:00;;;;;;;;;;;;;;;;;;;;;
2021/08/26 01:55:14;;;;;;;16.10;4.15;;;;;;;15.00;86.56;101831.19;6215571;23;20024;-83
2021/08/26 01:58:44;;;;;;;;;;;;;;;;;;;;;
2021/08/26 02:01:34;;;;;;;15.15;4.13;;;;;;;14.98;85.49;101834.69;6109389;23;20018;-81
2021/08/26 02:04:21;;;;;;;13.60;4.20;;;;;;;15.03;84.69;101833.00;6214136;23;20012;-81
2021/08/26 02:07:11;;;;;;;16.85;4.55;;;;;;;15.07;84.04;101818.91;6189970;23;20012;-81
2021/08/26 02:10:31;;;;;;;18.63;3.90;;;;;;;15.11;80.74;101820.72;6218101;23;20012;-82
2021/08/26 02:12:57;;;;;;;20.17;3.55;;;;;;;15.13;80.65;101818.97;6215900;23;20096;-79
2021/08/26 02:15:45;;;;;;;22.13;4.25;;;;;;;15.12;81.00;101816.31;6217748;23;20012;-83
2021/08/26 02:18:13;;;;;;;22.50;4.40;;;;;;;15.07;81.44;101818.91;6216491;23;20080;-78
2021/08/26 02:20:58;;;;;;;17.80;3.75;;;;;;;15.10;79.75;101829.56;6191484;23;20011;-81
2021/08/26 02:30:03;;;;;;;16.00;4.15;;;;;;;15.00;80.95;101823.22;6216496;23;20352;-84
2021/08/26 02:33:04;;;;;;;18.27;3.92;;;;;;;14.99;81.20;101823.22;6214979;23;20028;-80
2021/08/26 02:38:30;;;;;;;19.42;3.83;;;;;;;14.96;81.74;101823.16;6215747;23;20106;-83
2021/08/26 02:41:33;;;;;;;17.50;3.55;;;;;;;14.91;81.30;101827.53;6218038;23;20554;-85
2021/08/26 02:44:08;;;;;;;17.40;3.03;;;;;;;14.90;81.25;101837.22;6217467;23;20012;-84
2021/08/26 02:47:13;;;;;;;20.73;3.70;;;;;;;14.88;80.79;101832.75;6187362;23;20004;-84
2021/08/26 02:50:02;;;;;;;14.25;4.18;;;;;;;14.86;81.08;101829.22;6217547;23;20021;-81
2021/08/26 02:52:44;;;;;;;21.13;4.50;;;;;;;14.81;81.06;101824.72;6217299;23;20025;-83
2021/08/26 02:55:38;;;;;;;12.82;2.78;;;;;;;14.78;81.60;101827.31;6218107;23;20020;-84
2021/08/26 02:58:27;;;;;;;16.95;3.88;;;;;;;14.76;80.96;101823.78;6191571;23;20020;-82
2021/08/26 03:01:12;;;;;;;21.20;3.92;;;;;;;14.79;80.39;101818.50;6181880;23;20332;-81
2021/08/26 03:04:04;;;;;;;22.13;4.13;;;;;;;14.78;81.55;101818.50;6188066;23;20043;-84
2021/08/26 03:06:51;;;;;;;14.68;3.30;;;;;;;14.79;81.38;101813.22;6204200;23;20336;-82
2021/08/26 03:09:51;;;;;;;20.98;4.07;;;;;;;14.84;80.77;101821.25;6217318;23;20017;-84
2021/08/26 03:12:48;;;;;;;15.38;3.08;;;;;;;14.89;79.78;101816.00;6114768;23;20004;-84
2021/08/26 03:15:39;;;;;;;15.85;3.55;;;;;;;14.90;80.34;101820.44;6101451;23;20063;-84
2021/08/26 03:18:28;;;;;;;8.40;2.67;;;;;;;14.91;78.77;101816.91;6217251;23;20009;-82
2021/08/26 03:21:11;;;;;;;17.55;3.55;;;;;;;14.92;79.99;101818.69;6185179;23;20017;-82
2021/08/26 03:24:56;;;;;;;17.83;3.83;;;;;;;14.93;79.94;101812.50;6216576;23;20028;-86
2021/08/26 03:27:45;;;;;;;19.70;3.78;;;;;;;14.93;79.91;101816.03;6211676;23;20012;-84
2021/08/26 03:30:36;;;;;;;11.52;3.13;;;;;;;14.91;80.61;101811.63;6219352;23;20008;-82
2021/08/26 03:36:36;;;;;;;13.48;3.28;;;;;;;14.87;80.83;101808.03;6218207;23;20023;-81
2021/08/26 03:39:09;;;;;;;10.70;2.85;;;;;;;14.86;81.25;101808.88;6190793;23;20008;-82
2021/08/26 03:41:40;;;;;;;15.27;3.30;;;;;;;14.89;80.81;101808.03;6218412;23;20079;-86
2021/08/26 03:44:51;;;;;;;15.35;3.08;;;;;;;14.91;83.14;101819.56;6187521;23;20447;-83
2021/08/26 03:47:33;;;;;;;;;;;;;;;;;;;;;
2021/08/26 03:50:36;;;;;;;13.88;3.50;;;;;;;14.88;83.10;101812.47;6195084;23;20104;-82
2021/08/26 03:53:22;;;;;;;17.27;4.00;;;;;;;14.90;83.52;101815.13;6213597;23;20498;-83
2021/08/26 03:56:40;;;;;;;25.65;3.80;;;;;;;14.89;83.77;101808.03;6216497;23;20107;-84
2021/08/26 03:59:36;;;;;;;17.55;3.40;;;;;;;14.91;84.05;101816.91;6197634;23;20032;-85
2021/08/26 04:05:10;;;;;;;23.30;4.95;;;;;;;14.93;84.65;101816.03;6208395;23;20025;-80
2021/08/26 04:07:36;;;;;;;15.98;3.63;;;;;;;14.89;85.25;101818.66;6216722;23;20078;-80
2021/08/26 04:10:20;;;;;;;20.70;3.45;;;;;;;14.88;85.60;101824.81;6214791;23;20079;-84
2021/08/26 04:12:48;;;;;;;13.90;3.28;;;;;;;14.82;85.93;101829.13;6214278;23;20013;-83
2021/08/26 04:15:49;;;;;;;20.48;3.33;;;;;;;14.83;86.25;101828.28;6165606;23;20008;-83
2021/08/26 04:18:51;;;;;;;19.70;4.28;;;;;;;14.88;84.52;101824.81;6215835;23;20008;-82
2021/08/26 04:25:17;;;;;;;12.35;2.95;;;;;;;14.96;82.78;101808.16;6182542;23;20013;-82
2021/08/26 04:28:19;;;;;;;18.58;3.60;;;;;;;14.93;83.40;101809.88;6203958;23;20055;-83
2021/08/26 04:31:19;;;;;;;;;;;;;;;14.94;84.48;101816.97;6214537;23;20024;-84
2021/08/26 04:34:45;;;;;;;15.32;3.28;;;;;;;14.94;84.17;101811.66;6213265;23;19904;-84
2021/08/26 04:37:42;;;;;;;17.70;3.50;;;;;;;14.91;84.02;101804.56;6217281;23;20084;-85
2021/08/26 04:41:44;;;;;;;;;;;;;;;;;;;;;
2021/08/26 04:44:24;;;;;;;16.48;3.75;;;;;;;14.98;78.40;101786.97;6197596;23;20008;-82
2021/08/26 04:47:35;;;;;;;16.20;3.35;;;;;;;14.99;79.14;101783.47;6215146;23;20135;-83
2021/08/26 04:50:47;;;;;;;11.98;1.90;;;;;;;14.99;77.22;101773.75;6205951;23;20024;-82
2021/08/26 04:54:17;;;;;;;;;;;;;;;;;;;;;
2021/08/26 04:57:17;;;;;;;12.07;2.40;;;;;;;15.02;75.64;101783.50;6142278;23;20013;-83
2021/08/26 05:00:37;;;;;;;7.07;1.63;;;;;;;15.05;74.86;101780.00;6140728;23;20009;-84
2021/08/26 05:04:07;;;;;;;;;;;;;;;;;;;;;
2021/08/26 05:07:07;;;;;;;9.43;2.05;;;;;;;15.13;75.46;101778.34;6153364;23;20096;-83
2021/08/26 05:10:30;;;;;;;;;;;;;;;;;;;;;
2021/08/26 05:13:52;;;;;;;;;;;;;;;;;;;;;
2021/08/26 05:28:14;;;;;;;8.63;1.98;;;;;;;15.29;76.64;101792.69;5980787;24;20019;-84
2021/08/26 05:30:39;;;;;;;12.15;2.58;;;;;;;15.33;77.22;101790.06;5980486;23;20557;-84
2021/08/26 05:33:38;;;;;;;18.85;2.63;;;;;;;15.40;74.86;101785.72;5979640;24;20070;-83
2021/08/26 05:39:31;;;;;;;;;;;;;;;15.49;74.98;101784.94;6009188;23;20109;-81
2021/08/26 05:49:21;;;;;;;12.63;2.28;;;;;;;15.54;75.03;101777.91;5929258;24;20044;-86
2021/08/26 05:52:58;;;;;;;;;;;;;;;;;;;;;
2021/08/26 06:29:21;;;;;;;;;;;;;;;;;;;;;
2021/08/26 06:32:23;;;;;;;8.10;2.42;;;;;;;15.63;75.58;101793.06;6137536;23;20013;-88
2021/08/26 07:08:37;;;;;;;16.25;2.30;;;;;;;16.24;75.09;101792.78;5956103;24;20024;-86
2021/08/26 07:12:02;;;;;;;16.05;2.42;;;;;;;16.28;75.64;101802.56;5954814;24;20021;-89
2021/08/26 07:18:09;;;;;;;11.43;2.33;;;;;;;16.32;75.58;101806.16;5957622;24;20064;-82
2021/08/26 07:21:14;;;;;;;10.25;2.80;;;;;;;16.24;76.79;101823.78;5952968;24;20017;-84
2021/08/26 07:23:40;;;;;;;8.25;1.67;;;;;;;15.84;79.70;101830.47;5953264;23;20027;-80
2021/08/26 07:27:03;;;;;;;8.45;2.15;;;;;;;15.71;79.25;101849.75;6152119;23;20341;-84
2021/08/26 07:30:26;;;;;;;;;;;;;;;;;;;;;
2021/08/26 07:33:47;;;;;;;5.17;1.53;;;;;;;15.65;82.93;101831.09;6147694;23;20021;-82
2021/08/26 07:37:05;;;;;;;10.27;1.90;;;;;;;16.06;82.30;101825.41;6142862;23;20060;-84
2021/08/26 07:39:30;;;;;;;6.82;1.30;;;;;;;16.36;79.52;101805.28;6152923;23;20010;-82
2021/08/26 07:45:41;;;;;;;7.60;1.17;;;;;;;17.13;77.42;101794.28;6064830;23;20350;-86
2021/08/26 07:48:26;;;;;;;12.15;2.00;;;;;;;17.32;75.16;101796.16;6108136;23;20016;-82
2021/08/26 07:51:12;;;;;;;4.35;1.13;;;;;;;17.43;76.81;101801.50;6153260;23;20141;-80
2021/08/26 07:54:03;;;;;;;6.63;1.40;;;;;;;17.60;73.57;101795.34;6180502;23;20030;-86
2021/08/26 07:56:28;;;;;;;5.38;1.25;;;;;;;17.79;71.46;101783.84;6215390;23;20071;-78
2021/08/26 07:58:54;;;;;;;3.25;0.90;;;;;;;18.09;70.89;101786.56;6216065;23;20072;-79
2021/08/26 08:01:22;;;;;;;7.90;1.58;;;;;;;18.40;69.50;101779.47;6209250;23;20008;-83
2021/08/26 08:03:48;;;;;;;5.28;1.10;;;;;;;18.36;66.90;101769.69;6214561;23;20021;-82
2021/08/26 08:06:13;;;;;;;5.10;1.13;;;;;;;18.53;66.15;101775.03;6215867;23;20008;-82
2021/08/26 08:08:42;;;;;;;6.05;1.13;;;;;;;18.46;66.17;101768.81;6185304;23;20439;-82
2021/08/26 08:11:59;;;;;;;6.22;1.20;;;;;;;18.57;65.89;101775.88;6212344;23;20004;-88
2021/08/26 08:15:22;;;;;;;8.75;1.67;;;;;;;18.77;67.25;101773.19;6137283;23;20209;-85
2021/08/26 08:17:48;;;;;;;8.00;1.30;;;;;;;18.77;67.59;101770.50;6215398;23;20001;-83
2021/08/26 08:24:05;;;;;;;6.88;1.20;;;;;;;18.78;66.12;101762.50;6089587;23;20053;-81
2021/08/26 08:27:09;;;;;;;8.15;1.38;;;;;;;18.63;66.83;101767.88;6097639;23;20010;-85
2021/08/26 08:30:10;;;;;;;;;;;;;;;;;;;;;
2021/08/26 08:32:49;;;;;;;6.93;1.40;;;;;;;18.20;69.45;101779.47;6122654;23;20077;-85
2021/08/26 08:35:37;;;;;;;8.68;1.52;;;;;;;18.19;70.55;101772.34;6196629;23;20011;-83
2021/08/26 08:38:34;;;;;;;12.32;1.42;;;;;;;18.14;71.72;101782.16;6212727;23;20000;-80
2021/08/26 08:41:07;;;;;;;4.40;1.20;;;;;;;17.93;72.03;101777.69;6206762;23;20174;-85
2021/08/26 08:44:14;;;;;;;10.00;1.65;;;;;;;18.26;70.05;101784.81;6210172;23;20016;-84
2021/08/26 08:47:22;;;;;;;5.55;1.58;;;;;;;18.51;70.44;101777.66;6112809;23;20004;-84
2021/08/26 08:50:45;;;;;;;4.78;1.55;;;;;;;18.72;69.98;101783.88;6119418;23;20014;-82
2021/08/26 08:53:49;;;;;;;5.65;1.50;;;;;;;19.10;68.97;101780.22;6197736;23;20455;-83
2021/08/26 08:57:09;;;;;;;5.40;1.65;;;;;;;19.33;67.02;101773.88;6214572;23;20011;-83
2021/08/26 08:59:44;;;;;;;6.78;2.15;;;;;;;19.08;67.54;101782.00;6213913;23;20012;-83
2021/08/26 09:02:32;;;;;;;13.75;2.22;;;;;;;18.59;69.84;101792.78;6210383;23;20005;-86
2021/08/26 09:12:47;;;;;;;16.80;2.75;;;;;;;16.89;80.26;101819.88;6207466;23;20019;-84
2021/08/26 09:16:08;;;;;;;12.75;2.38;;;;;;;16.98;79.74;101811.94;6216858;23;20013;-85
2021/08/26 09:19:06;;;;;;;8.98;2.83;;;;;;;17.11;76.65;101794.28;6189436;23;20000;-86
2021/08/26 09:26:00;;;;;;;13.98;2.80;;;;;;;17.86;76.26;101796.28;6128964;23;20313;-84
2021/08/26 09:29:27;;;;;;;13.13;3.08;;;;;;;17.95;72.07;101786.56;6071952;23;20315;-87
2021/08/26 09:35:46;;;;;;;;;;;;;;;;;;;;;
2021/08/26 09:39:02;;;;;;;9.13;2.65;;;;;;;17.07;79.36;101813.75;6094839;23;20022;-88
2021/08/26 09:45:28;;;;;;;8.55;2.70;;;;;;;16.97;77.00;101803.94;5924630;24;20009;-84
2021/08/26 09:49:05;;;;;;;;;;;;;;;;;;;;;
2021/08/26 09:52:05;;;;;;;7.85;2.58;;;;;;;17.30;74.47;101783.72;5994276;23;20012;-83
2021/08/26 09:55:38;;;;;;;11.93;2.63;;;;;;;17.51;73.68;101782.88;6001389;23;20079;-84
2021/08/26 09:59:06;;;;;;;;;;;;;;;;;;;;;
2021/08/26 10:02:19;;;;;;;14.98;2.45;;;;;;;17.67;72.93;101784.69;6071048;23;20013;-84
2021/08/26 10:04:46;;;;;;;13.23;3.30;;;;;;;17.63;71.81;101782.03;6205865;23;20062;-82
2021/08/26 10:07:42;;;;;;;;;;;;;;;;;;;;;
2021/08/26 10:11:10;;;;;;;16.55;3.13;;;;;;;17.66;72.76;101785.59;6120298;23;20481;-82
2021/08/26 10:14:25;;;;;;;14.52;3.08;;;;;;;17.49;71.31;101769.59;6147329;23;20428;-80
2021/08/26 10:16:58;;;;;;;16.35;3.65;;;;;;;17.84;71.71;101775.88;6215034;23;20035;-83
2021/08/26 10:19:52;;;;;;;;;;;;;;;18.22;70.97;101776.78;6214010;23;20000;-82
2021/08/26 10:22:45;;;;;;;14.15;3.15;;;;;;;18.52;67.44;101758.13;6214642;23;19915;-87
2021/08/26 10:26:05;;;;;;;20.20;4.32;;;;;;;18.74;68.18;101766.06;6215454;23;20008;-84
2021/08/26 10:28:55;;;;;;;16.08;3.90;;;;;;;19.32;66.56;101766.78;6099501;23;20011;-85
2021/08/26 10:31:54;;;;;;;14.68;4.07;;;;;;;19.71;65.78;101759.44;6212651;23;20094;-83
2021/08/26 10:34:59;;;;;;;16.60;3.72;;;;;;;19.51;65.59;101759.56;6192768;23;20028;-81
2021/08/26 10:38:20;;;;;;;20.38;3.80;;;;;;;19.76;68.53;101776.31;6187628;23;20005;-83
2021/08/26 10:41:08;;;;;;;11.48;3.38;;;;;;;19.46;62.75;101759.56;6202777;23;20008;-82
2021/08/26 10:43:41;;;;;;;14.65;3.83;;;;;;;19.34;65.42;101771.22;6217111;23;20009;-86
2021/08/26 10:46:56;;;;;;;18.70;3.55;;;;;;;19.10;67.07;101780.22;6214198;23;20059;-84
2021/08/26 10:50:19;;;;;;;;;;;;;;;;;;;;;
2021/08/26 10:53:07;;;;;;;20.98;4.50;;;;;;;18.51;70.09;101796.31;6215897;23;20016;-80
2021/08/26 10:56:57;;;;;;;;;;;;;;;;;;;;;
2021/08/26 10:59:58;;;;;;;14.70;3.67;;;;;;;18.80;67.79;101784.72;6104317;23;20058;-82
2021/08/26 11:03:10;;;;;;;22.88;4.55;;;;;;;18.81;67.35;101786.47;6119051;23;20014;-86
2021/08/26 11:10:14;;;;;;;14.95;4.25;;;;;;;18.40;69.08;101787.47;6129663;23;20064;-85
2021/08/26 11:12:58;;;;;;;13.68;3.60;;;;;;;18.39;70.57;101791.00;6084901;23;20021;-84
2021/08/26 11:19:40;;;;;;;;;;;;;;;;;;;;;
2021/08/26 11:26:27;;;;;;;11.90;2.72;;;;;;;18.28;68.03;101777.69;6034125;23;20086;-84
2021/08/26 11:28:53;;;;;;;14.20;2.85;;;;;;;18.47;67.43;101773.22;6156513;23;20372;-80
2021/08/26 11:31:20;;;;;;;15.18;3.30;;;;;;;18.84;65.58;101773.16;6218551;23;20008;-84
2021/08/26 11:34:10;;;;;;;15.68;3.30;;;;;;;19.02;64.49;101774.03;6216694;23;20012;-84
2021/08/26 11:36:35;;;;;;;12.38;2.90;;;;;;;19.43;62.49;101772.06;6217402;23;20009;-78
2021/08/26 11:39:02;;;;;;;15.73;3.65;;;;;;;19.76;63.66;101776.31;6215971;23;20084;-81
2021/08/26 11:41:28;;;;;;;15.23;3.50;;;;;;;19.64;67.51;101803.09;6213205;23;20147;-80
2021/08/26 11:43:53;;;;;;;15.02;3.15;;;;;;;19.19;69.39;101805.97;6212616;23;20448;-81
2021/08/26 11:46:19;;;;;;;11.50;3.45;;;;;;;19.35;69.21;101806.81;6212739;23;20010;-80
2021/08/26 11:48:54;;;;;;;15.32;3.00;;;;;;;19.76;66.19;101795.00;6216411;23;20008;-80
2021/08/26 11:51:45;;;;;;;8.63;2.40;;;;;;;19.83;64.95;101779.84;6211637;23;20055;-80
2021/08/26 11:54:17;;;;;;;10.52;2.50;;;;;;;19.81;63.66;101795.00;6211129;23;20025;-77
2021/08/26 11:57:02;;;;;;;9.60;3.30;;;;;;;19.74;64.98;101783.44;6213527;23;20455;-83
2021/08/26 11:59:37;;;;;;;7.47;2.75;;;;;;;19.78;65.50;101779.88;6211668;23;20016;-81
2021/08/26 12:02:23;;;;;;;16.85;2.83;;;;;;;19.87;64.49;101794.97;6207460;23;20428;-80
2021/08/26 12:04:52;;;;;;;12.95;2.92;;;;;;;20.02;65.36;101796.63;6211518;23;20008;-79
2021/08/26 12:07:29;;;;;;;7.05;2.15;;;;;;;19.90;61.22;101778.03;6211225;23;20364;-80
2021/08/26 12:09:57;;;;;;;11.88;3.65;;;;;;;20.03;66.76;101791.28;6213027;23;20008;-80
2021/08/26 12:13:07;;;;;;;14.02;3.97;;;;;;;20.05;62.62;101780.59;6211888;23;20004;-82
2021/08/26 12:16:07;;;;;;;10.45;2.83;;;;;;;20.19;63.12;101783.16;6132422;23;20012;-84
2021/08/26 12:18:32;;;;;;;13.95;3.75;;;;;;;20.62;64.43;101780.06;6211929;23;20008;-81
2021/08/26 12:21:29;;;;;;;18.50;4.80;;;;;;;21.20;60.22;101783.91;6215660;23;19992;-81
2021/08/26 12:24:00;;;;;;;18.85;3.97;;;;;;;21.32;61.66;101779.28;6212903;23;20010;-80
2021/08/26 12:26:40;;;;;;;26.10;4.28;;;;;;;21.49;61.34;101785.31;6213177;23;20218;-84
2021/08/26 12:29:19;;;;;;;14.00;3.53;;;;;;;21.61;65.20;101778.94;6214641;23;20035;-83
2021/08/26 12:31:48;;;;;;;20.17;3.97;;;;;;;21.70;59.63;101768.09;6213921;23;20072;-84
2021/08/26 12:37:17;;;;;;;15.35;3.88;;;;;;;20.49;61.37;101781.97;6210607;23;20019;-81
2021/08/26 12:40:37;;;;;;;30.77;4.97;;;;;;;20.11;63.85;101787.69;6209262;23;20498;-82
2021/08/26 12:43:37;;;;;;;19.58;4.43;;;;;;;20.14;65.75;101799.19;6212546;23;20008;-85
2021/08/26 12:47:04;;;;;;;16.40;4.43;;;;;;;20.05;65.55;101788.63;6214423;23;20467;-84
2021/08/26 12:50:25;;;;;;;19.58;4.68;;;;;;;19.98;66.12;101800.22;6214040;23;20008;-87
2021/08/26 12:53:30;;;;;;;21.27;4.53;;;;;;;19.76;66.82;101796.78;6208764;23;20078;-82
2021/08/26 12:56:20;;;;;;;15.27;4.40;;;;;;;19.70;69.63;101795.06;6171583;23;20483;-84
2021/08/26 12:59:30;;;;;;;21.77;4.93;;;;;;;19.50;68.22;101792.50;6212937;23;20028;-86
2021/08/26 13:03:00;;;;;;;;;;;;;;;;;;;;;
2021/08/26 13:13:20;;;;;;;18.33;4.15;;;;;;;19.31;69.32;101805.91;6020017;23;20094;-83
2021/08/26 13:15:55;;;;;;;25.08;4.15;;;;;;;18.93;73.22;101822.06;6035395;23;20041;-82
2021/08/26 13:18:23;;;;;;;20.30;3.83;;;;;;;18.47;77.35;101826.53;6066810;23;20028;-82
2021/08/26 13:21:08;;;;;;;14.82;3.97;;;;;;;18.18;76.59;101829.22;6122989;23;20017;-82
2021/08/26 13:24:20;;;;;;;12.60;3.67;;;;;;;17.90;76.80;101821.13;6123204;23;20014;-86
2021/08/26 13:28:03;;;;;;;;;;;;;;;;;;;;;
2021/08/26 13:30:30;;;;;;;16.38;3.78;;;;;;;17.95;77.69;101829.19;6134350;23;20513;-84
2021/08/26 13:33:21;;;;;;;18.83;4.18;;;;;;;17.98;76.84;101819.41;6212085;23;20538;-82
2021/08/26 13:35:47;;;;;;;14.98;3.55;;;;;;;18.10;76.78;101823.88;6210669;23;20052;-77
2021/08/26 13:38:12;;;;;;;16.48;4.28;;;;;;;18.20;76.30;101822.09;6201578;23;20463;-78
2021/08/26 13:40:38;;;;;;;15.63;4.13;;;;;;;18.48;75.78;101822.97;6206932;23;20013;-77
2021/08/26 13:43:03;;;;;;;16.77;4.68;;;;;;;18.65;76.31;101824.75;6210739;23;20478;-76
2021/08/26 13:46:11;;;;;;;20.02;5.15;;;;;;;18.23;77.73;101829.19;6213100;23;20066;-84
2021/08/26 13:52:42;;;;;;;17.77;4.57;;;;;;;17.76;77.01;101805.13;6214214;23;20063;-82
2021/08/26 13:55:08;;;;;;;14.50;3.83;;;;;;;18.02;78.35;101807.00;6128154;23;20060;-76
2021/08/26 13:58:36;;;;;;;20.70;4.55;;;;;;;18.13;77.28;101799.00;6211191;23;20008;-83
2021/08/26 14:04:22;;;;;;;19.52;4.28;;;;;;;19.03;74.89;101786.47;6191786;23;20013;-84
2021/08/26 14:07:51;;;;;;;18.15;4.57;;;;;;;19.14;74.11;101790.00;6186514;23;20674;-86
2021/08/26 14:18:28;;;;;;;15.55;4.05;;;;;;;18.93;73.97;101784.72;6011224;23;20004;-87
2021/08/26 14:23:30;;;;;;;15.18;4.18;;;;;;;18.65;73.73;101776.75;6150381;23;20025;-83
2021/08/26 14:26:27;;;;;;;20.02;4.88;;;;;;;18.59;74.64;101787.44;6153396;23;20041;-84
2021/08/26 14:29:09;;;;;;;20.40;4.75;;;;;;;18.83;72.06;101776.72;6134992;23;20017;-81
2021/08/26 14:31:37;;;;;;;20.52;4.53;;;;;;;18.96;72.78;101771.38;6151376;23;20033;-82
2021/08/26 14:34:02;;;;;;;19.55;4.72;;;;;;;19.12;74.14;101783.75;6156667;23;20144;-80
2021/08/26 14:36:48;;;;;;;19.67;4.38;;;;;;;19.13;71.78;101774.88;6153961;23;20044;-79
2021/08/26 14:39:13;;;;;;;19.85;4.43;;;;;;;19.12;71.51;101778.41;6151938;23;20092;-82
2021/08/26 14:41:39;;;;;;;24.73;5.65;;;;;;;19.25;71.07;101773.03;6155130;23;20088;-80
2021/08/26 14:44:12;;;;;;;19.77;4.53;;;;;;;19.52;72.08;101782.69;6156151;23;20008;-80
2021/08/26 14:46:40;;;;;;;18.27;4.20;;;;;;;19.73;69.33;101765.66;6149557;23;20014;-81
2021/08/26 14:49:28;;;;;;;16.35;3.95;;;;;;;19.85;69.88;101768.25;6146421;23;20085;-83
2021/08/26 14:51:56;;;;;;;19.17;4.43;;;;;;;19.73;71.02;101765.66;6151324;23;20009;-80
2021/08/26 14:54:29;;;;;;;20.33;4.97;;;;;;;19.79;71.04;101772.72;6149692;23;20437;-83
2021/08/26 14:57:14;;;;;;;18.23;4.38;;;;;;;19.57;69.68;101770.19;6152433;23;20001;-80
2021/08/26 14:59:46;;;;;;;15.90;3.40;;;;;;;19.59;68.48;101762.16;6154085;23;20016;-81
2021/08/26 15:02:32;;;;;;;12.80;3.97;;;;;;;19.63;69.88;101772.84;6152793;23;20006;-83
2021/08/26 15:04:58;;;;;;;16.20;4.22;;;;;;;19.55;69.46;101770.22;6152053;23;20010;-81
2021/08/26 15:07:23;;;;;;;15.93;4.45;;;;;;;19.61;69.62;101771.94;6153291;23;20029;-82
2021/08/26 15:09:57;;;;;;;20.13;4.15;;;;;;;19.91;70.14;101777.13;6154255;23;20002;-82
2021/08/26 15:12:46;;;;;;;;;;;;;;;19.98;69.17;101773.50;6155827;23;20401;-86
2021/08/26 15:16:09;;;;;;;15.88;3.83;;;;;;;19.97;69.32;101777.09;6148774;23;19984;-84
2021/08/26 15:19:32;;;;;;;17.02;3.10;;;;;;;20.19;69.14;101759.97;6072601;23;20030;-81
2021/08/26 15:22:29;;;;;;;12.95;4.22;;;;;;;20.32;68.80;101763.44;6115871;23;20018;-81
2021/08/26 15:24:55;;;;;;;16.15;3.78;;;;;;;20.17;69.88;101760.88;6154717;23;20010;-79
2021/08/26 15:27:20;;;;;;;16.50;4.43;;;;;;;20.12;69.74;101755.59;6151101;23;20009;-80
2021/08/26 15:29:49;;;;;;;25.77;4.68;;;;;;;19.77;69.33;101753.16;6153595;23;20009;-74
2021/08/26 15:32:22;;;;;;;56.78;17.48;;;;;;;19.77;70.53;101756.72;6154896;23;20060;-75
2021/08/26 15:34:47;;;;;;;22.15;5.57;;;;;;;19.76;70.88;101754.94;6153677;23;20005;-75
2021/08/26 15:37:13;;;;;;;22.83;5.93;;;;;;;19.68;71.80;101756.78;6139153;23;20010;-75
2021/08/26 15:39:39;;;;;;;22.00;4.40;;;;;;;19.77;70.09;101745.16;6146957;23;20019;-76
2021/08/26 15:42:13;;;;;;;15.90;3.95;;;;;;;19.84;70.62;101753.13;6152521;23;20413;-72
2021/08/26 15:44:52;;;;;;;22.13;5.18;;;;;;;19.65;70.65;101751.47;6153023;23;20029;-75
2021/08/26 15:47:18;;;;;;;25.38;5.63;;;;;;;19.38;71.83;101758.72;6152522;23;20019;-75
2021/08/26 15:49:44;;;;;;;23.98;5.63;;;;;;;19.27;73.20;101755.25;6153780;23;20008;-74
2021/08/26 15:52:17;;;;;;;18.17;5.22;;;;;;;19.07;72.41;101758.00;6150359;23;20002;-77
2021/08/26 15:55:00;;;;;;;23.38;6.05;;;;;;;18.87;73.72;101756.28;6152586;23;20053;-74
2021/08/26 16:04:14;;;;;;;27.25;4.88;;;;;;;18.77;75.12;101754.50;6105538;23;20514;-83
2021/08/26 16:06:43;;;;;;;23.73;5.03;;;;;;;18.91;73.12;101741.16;6154844;23;20051;-84
2021/08/26 16:09:18;;;;;;;23.20;5.05;;;;;;;18.94;73.21;101741.19;6150743;23;20131;-85
2021/08/26 16:15:37;;;;;;;28.02;5.60;;;;;;;19.00;72.20;101735.78;6110608;23;20014;-84
2021/08/26 16:18:54;;;;;;;25.23;5.03;;;;;;;18.84;71.60;101741.16;6128476;23;20045;-82
2021/08/26 16:25:47;;;;;;;20.60;4.40;;;;;;;18.59;72.62;101734.13;6158016;23;20032;-90
2021/08/26 16:36:04;;;;;;;26.33;4.88;;;;;;;18.63;73.19;101742.09;6155155;23;20020;-86
2021/08/26 16:39:03;;;;;;;;;;;;;;;;;;;;;
2021/08/26 16:52:07;;;;;;;20.38;4.68;;;;;;;18.74;70.91;101750.06;6064490;23;20006;-86
2021/08/26 16:57:39;;;;;;;;;;;;;;;;;;;;;
2021/08/26 17:03:50;;;;;;;23.88;5.05;;;;;;;18.52;71.71;101750.13;6081835;23;20049;-85
2021/08/26 17:06:56;;;;;;;;;;;;;;;;;;;;;
2021/08/26 17:16:54;;;;;;;19.70;4.78;;;;;;;18.41;72.49;101761.69;6091084;23;20062;-80
2021/08/26 17:19:57;;;;;;;;;;;;;;;;;;;;;
2021/08/26 17:22:49;;;;;;;20.88;4.90;;;;;;;18.52;74.20;101760.78;6064189;23;20011;-83
2021/08/26 17:26:02;;;;;;;24.45;5.30;;;;;;;18.66;74.21;101762.53;6155045;23;20013;-84
2021/08/26 17:28:28;;;;;;;20.20;4.07;;;;;;;18.74;73.68;101766.06;6153544;23;20009;-82
2021/08/26 17:30:56;;;;;;;25.02;6.25;;;;;;;18.66;74.53;101779.41;6154223;23;20005;-81
2021/08/26 17:33:41;;;;;;;;;;;;;;;;;;;;;
2021/08/26 17:36:50;;;;;;;19.75;4.68;;;;;;;18.39;74.87;101780.34;6148128;23;20093;-84
2021/08/26 17:44:07;;;;;;;12.93;3.10;;;;;;;17.55;78.87;101799.75;5984515;23;20035;-87
2021/08/26 17:47:07;;;;;;;13.10;3.00;;;;;;;17.36;79.34;101799.69;6154238;23;20005;-83
2021/08/26 17:49:33;;;;;;;12.60;3.55;;;;;;;17.21;80.06;101810.28;6121180;23;20466;-81
2021/08/26 17:52:07;;;;;;;15.73;3.90;;;;;;;17.19;80.61;101813.81;6156645;23;20005;-86
2021/08/26 18:01:48;;;;;;;11.45;3.60;;;;;;;17.07;81.38;101816.41;6144716;23;20088;-87
2021/08/26 18:08:30;;;;;;;14.63;2.90;;;;;;;16.97;80.90;101827.88;6157024;23;20075;-84
2021/08/26 19:21:06;;;;;;;3.88;0.90;;;;;;;15.00;80.42;101928.34;6159278;23;20064;-84
2021/08/26 19:27:12;;;;;;;6.55;1.30;;;;;;;14.90;80.10;101931.75;6090910;23;20468;-83
2021/08/26 19:29:38;;;;;;;6.38;1.20;;;;;;;14.88;80.19;101937.03;6157493;23;20005;-81
2021/08/26 19:32:13;;;;;;;9.35;1.38;;;;;;;14.83;80.49;101936.03;6156528;23;20333;-83
2021/08/26 19:35:39;;;;;;;8.88;1.50;;;;;;;14.77;80.41;101936.84;6157467;23;20014;-86
2021/08/26 19:41:55;;;;;;;7.32;1.00;;;;;;;14.66;80.20;101949.00;6039074;23;20030;-82
2021/08/26 19:44:50;;;;;;;4.40;1.40;;;;;;;14.64;80.13;101953.38;6026756;23;20382;-87
2021/08/26 19:51:07;;;;;;;4.28;1.50;;;;;;;14.55;80.81;101966.44;6155790;23;20060;-79
2021/08/26 19:57:37;;;;;;;3.35;1.17;;;;;;;14.45;80.71;101970.66;6136262;23;20033;-86
2021/08/26 20:00:45;;;;;;;5.10;0.88;;;;;;;14.39;80.96;101979.41;6095202;23;20093;-87
2021/08/26 20:03:26;;;;;;;4.78;0.93;;;;;;;14.37;81.09;101973.16;6124357;23;20029;-90
2021/08/26 20:05:55;;;;;;;3.70;1.20;;;;;;;14.31;81.54;101980.97;6159074;23;20005;-82
2021/08/26 20:08:38;;;;;;;5.18;1.15;;;;;;;14.27;81.42;101988.00;6130417;23;20006;-86
2021/08/26 20:11:48;;;;;;;;;;;;;;;;;;;;;
2021/08/26 20:14:59;;;;;;;6.43;1.13;;;;;;;14.18;81.81;101982.50;6151216;23;20505;-88
2021/08/26 20:21:33;;;;;;;4.97;0.80;;;;;;;14.21;81.86;101995.78;6009831;23;20461;-83